Terminal Aerodrome Forecast
Issued by NWS Boston, MA

Home | Current Version | Previous Version | Text Only | Print | Product List | Glossary On
Versions: 1 2 3 4 5 6 7 8 9 10 11 12 13 14 15 16 17 18 19
000
FTUS41 KBOX 211726
TAFORH
TAF
KORH 211726Z 2118/2218 21015G28KT P6SM SKC
     FM212200 22012KT P6SM FEW250
     FM220200 23012KT P6SM FEW250 WS020/23040KT
     FM220800 22007KT P6SM VCSH BKN130
     FM221100 22006KT 3SM -RA BR OVC010=

USA.gov is the U.S. government's official web portal to all federal, state and local government web resources and services.